Time;durP1;ratioP1;P1;durP2;ratioP2;P2;SDS_P1;SDS_P2;PMS_P1;PMS_P2;Temp;Humidity;BMP_temperature;BMP_pressure;BME280_temperature;BME280_humidity;BME280_pressure;Samples;Min_cycle;Max_cycle;Signal;HPM_P1;HPM_P2
2021/09/01 00:01:03;;;;;;;8.35;4.90;;;;;;;14.71;64.61;101395.66;5025100;28;20022;-67
2021/09/01 00:03:28;;;;;;;7.85;4.13;;;;;;;14.69;64.69;101408.72;5025626;28;20026;-67
2021/09/01 00:05:54;;;;;;;7.75;4.07;;;;;;;14.66;64.50;101411.38;5025178;28;20104;-66
2021/09/01 00:08:19;;;;;;;6.78;4.07;;;;;;;14.65;64.46;101406.16;5025080;28;20022;-68
2021/09/01 00:10:44;;;;;;;7.78;3.95;;;;;;;14.61;64.57;101414.03;5025032;28;20026;-68
2021/09/01 00:13:10;;;;;;;6.20;3.85;;;;;;;14.59;64.94;101417.50;5024930;28;20037;-67
2021/09/01 00:15:35;;;;;;;7.07;4.00;;;;;;;14.58;65.12;101419.28;5024988;28;20026;-67
2021/09/01 00:18:01;;;;;;;6.20;4.28;;;;;;;14.61;65.44;101419.25;5023598;28;20018;-66
2021/09/01 00:20:27;;;;;;;6.22;4.18;;;;;;;14.62;65.54;101422.72;5024733;28;20029;-67
2021/09/01 00:22:55;;;;;;;6.85;4.38;;;;;;;14.63;65.38;101420.09;5024835;28;20024;-66
2021/09/01 00:25:21;;;;;;;7.43;3.92;;;;;;;14.62;65.39;101423.59;5024756;28;20021;-68
2021/09/01 00:27:47;;;;;;;8.65;3.97;;;;;;;14.59;65.28;101425.34;5024291;28;20029;-67
2021/09/01 00:30:13;;;;;;;6.18;3.80;;;;;;;14.56;65.48;101426.25;5024641;28;20052;-68
2021/09/01 00:32:38;;;;;;;8.27;4.15;;;;;;;14.53;65.23;101425.41;5023341;28;20026;-68
2021/09/01 00:35:05;;;;;;;8.68;4.03;;;;;;;14.49;65.26;101438.50;5024604;28;20025;-68
2021/09/01 00:37:30;;;;;;;11.10;5.07;;;;;;;14.45;65.76;101449.88;5024489;28;20054;-68
2021/09/01 00:39:55;;;;;;;11.38;4.85;;;;;;;14.38;66.22;101442.94;5024484;28;20037;-67
2021/09/01 00:42:21;;;;;;;8.75;4.40;;;;;;;14.30;66.37;101434.28;5024284;28;20036;-66
2021/09/01 00:44:47;;;;;;;8.25;4.20;;;;;;;14.27;66.39;101440.41;5024499;28;20022;-69
2021/09/01 00:47:16;;;;;;;8.77;4.60;;;;;;;14.22;66.65;101443.06;5024167;28;20420;-68
2021/09/01 00:49:42;;;;;;;7.47;4.80;;;;;;;14.20;67.00;101438.75;5024004;28;20025;-67
2021/09/01 00:52:07;;;;;;;8.50;4.50;;;;;;;14.16;67.20;101432.66;5023786;28;20056;-67
2021/09/01 00:54:32;;;;;;;7.13;4.45;;;;;;;14.11;67.22;101437.91;5024171;28;20082;-67
2021/09/01 00:57:01;;;;;;;7.30;4.15;;;;;;;14.09;67.17;101441.44;5023943;28;20506;-67
2021/09/01 00:59:29;;;;;;;9.45;4.45;;;;;;;14.07;67.52;101443.16;5024132;28;20029;-66
2021/09/01 01:01:56;;;;;;;8.68;4.60;;;;;;;14.04;67.84;101441.44;5024510;28;20037;-66
2021/09/01 01:04:25;;;;;;;7.20;4.88;;;;;;;14.04;67.77;101444.03;5023949;28;20033;-67
2021/09/01 01:06:51;;;;;;;11.10;4.50;;;;;;;14.01;68.02;101451.88;5023886;28;20029;-68
2021/09/01 01:09:16;;;;;;;7.80;5.15;;;;;;;13.97;67.94;101438.00;5024069;28;20025;-69
2021/09/01 01:12:00;;;;;;;6.72;4.07;;;;;;;13.95;68.13;101439.75;5024177;28;20081;-68
2021/09/01 01:14:27;;;;;;;6.88;5.10;;;;;;;13.93;68.44;101438.03;5024200;28;20355;-67
2021/09/01 01:16:53;;;;;;;9.18;4.43;;;;;;;13.93;68.46;101441.50;5024101;28;20113;-68
2021/09/01 01:19:20;;;;;;;7.78;5.05;;;;;;;13.94;68.87;101440.63;5024120;28;20034;-68
2021/09/01 01:21:46;;;;;;;8.27;5.00;;;;;;;13.98;68.61;101444.06;5023875;28;20026;-68
2021/09/01 01:24:11;;;;;;;7.90;4.47;;;;;;;13.98;68.43;101455.41;5023812;28;20049;-67
2021/09/01 01:26:37;;;;;;;7.90;4.78;;;;;;;13.97;68.54;101442.34;5023636;28;20025;-67
2021/09/01 01:29:06;;;;;;;7.57;4.72;;;;;;;13.96;68.51;101449.31;5023885;28;20029;-67
2021/09/01 01:31:32;;;;;;;7.38;4.35;;;;;;;13.96;68.86;101446.69;5024248;28;20064;-67
2021/09/01 01:33:59;;;;;;;9.30;4.80;;;;;;;13.99;68.60;101451.06;5023889;28;20022;-66
2021/09/01 01:36:27;;;;;;;8.02;4.88;;;;;;;14.00;68.78;101447.56;5023640;28;20034;-67
2021/09/01 01:38:53;;;;;;;7.82;4.32;;;;;;;14.00;68.56;101444.94;5022351;28;20041;-67
2021/09/01 01:41:18;;;;;;;7.47;3.88;;;;;;;14.05;68.63;101442.31;5023875;28;20076;-67
2021/09/01 01:43:48;;;;;;;6.20;4.45;;;;;;;14.09;68.23;101436.19;5022404;28;20041;-67
2021/09/01 01:46:14;;;;;;;8.40;4.60;;;;;;;14.13;67.86;101441.41;5023681;28;20041;-66
2021/09/01 01:48:39;;;;;;;6.13;4.30;;;;;;;14.25;67.64;101452.59;5023474;28;20026;-68
2021/09/01 01:51:05;;;;;;;7.50;3.15;;;;;;;14.29;67.44;101451.72;5023602;28;20053;-66
2021/09/01 01:53:31;;;;;;;8.48;3.15;;;;;;;14.28;67.51;101446.50;5023584;28;20026;-66
2021/09/01 01:55:57;;;;;;;7.15;4.10;;;;;;;14.35;67.08;101459.50;5023492;28;20461;-66
2021/09/01 01:58:22;;;;;;;9.18;4.07;;;;;;;14.35;66.88;101467.34;5022027;28;20053;-67
2021/09/01 02:00:48;;;;;;;7.20;4.45;;;;;;;14.34;66.89;101460.41;5023455;28;20034;-65
2021/09/01 02:03:13;;;;;;;6.85;4.13;;;;;;;14.33;66.83;101461.25;5026764;28;20022;-66
2021/09/01 02:05:38;;;;;;;9.43;3.75;;;;;;;14.26;66.68;101456.97;5027278;28;20030;-67
2021/09/01 02:08:04;;;;;;;4.03;3.05;;;;;;;14.27;66.79;101463.03;5027242;28;20094;-67
2021/09/01 02:10:29;;;;;;;6.45;3.75;;;;;;;14.28;66.56;101473.47;5027249;28;20022;-66
2021/09/01 02:12:55;;;;;;;6.80;3.60;;;;;;;14.27;66.70;101466.53;5027103;28;20049;-67
2021/09/01 02:15:20;;;;;;;6.55;4.05;;;;;;;14.30;66.54;101470.84;5025916;28;20040;-67
2021/09/01 02:17:46;;;;;;;7.13;3.97;;;;;;;14.30;66.53;101476.06;5027173;28;20022;-68
2021/09/01 02:20:13;;;;;;;6.07;3.42;;;;;;;14.26;66.41;101475.25;5027134;28;20028;-68
2021/09/01 02:22:40;;;;;;;6.55;3.50;;;;;;;14.21;66.38;101472.69;5027461;28;20113;-68
2021/09/01 02:25:07;;;;;;;5.60;3.58;;;;;;;14.18;66.36;101462.25;5027375;28;20030;-66
2021/09/01 02:27:33;;;;;;;5.75;3.67;;;;;;;14.19;66.47;101469.19;5027049;28;20029;-66
2021/09/01 02:29:59;;;;;;;8.70;3.65;;;;;;;14.12;66.50;101460.53;5027073;28;20161;-65
2021/09/01 02:32:25;;;;;;;9.00;4.13;;;;;;;14.16;66.42;101463.13;5027116;28;20022;-68
2021/09/01 02:34:50;;;;;;;6.15;4.05;;;;;;;14.13;66.60;101461.41;5027075;28;20060;-68
2021/09/01 02:37:16;;;;;;;7.38;4.28;;;;;;;14.13;66.29;101462.28;5026994;28;20025;-67
2021/09/01 02:39:41;;;;;;;5.85;3.58;;;;;;;14.08;66.31;101465.78;5026911;28;20029;-66
2021/09/01 02:42:07;;;;;;;6.57;3.90;;;;;;;14.00;66.48;101458.88;5026886;28;20028;-66
2021/09/01 02:44:33;;;;;;;5.28;3.45;;;;;;;13.96;66.55;101461.50;5026768;28;20109;-66
2021/09/01 02:46:58;;;;;;;6.15;3.40;;;;;;;13.93;66.81;101466.75;5026789;28;20029;-68
2021/09/01 02:49:23;;;;;;;7.10;3.92;;;;;;;13.90;66.85;101465.00;5026866;28;20140;-68
2021/09/01 02:51:49;;;;;;;9.45;4.28;;;;;;;13.85;66.96;101459.81;5026576;28;20026;-66
2021/09/01 02:54:15;;;;;;;5.70;4.03;;;;;;;13.81;67.04;101463.31;5026695;28;20085;-68
2021/09/01 02:56:40;;;;;;;5.90;3.92;;;;;;;13.79;67.05;101464.19;5026339;28;20049;-66
2021/09/01 02:59:05;;;;;;;6.72;4.00;;;;;;;13.77;67.10;101464.19;5026428;28;20041;-66
2021/09/01 03:01:31;;;;;;;5.45;3.63;;;;;;;13.75;67.07;101455.53;5026461;28;20022;-67
2021/09/01 03:03:56;;;;;;;5.47;3.70;;;;;;;13.74;67.06;101462.47;5026431;28;20098;-68
2021/09/01 03:06:21;;;;;;;7.55;4.15;;;;;;;13.72;67.25;101456.41;5026318;28;20030;-67
2021/09/01 03:08:47;;;;;;;5.75;4.18;;;;;;;13.70;67.24;101465.13;5026308;28;20048;-67
2021/09/01 03:11:12;;;;;;;6.03;3.88;;;;;;;13.65;67.30;101456.44;5026128;28;20029;-66
2021/09/01 03:13:38;;;;;;;6.85;3.83;;;;;;;13.61;67.32;101466.88;5025357;28;20246;-67
2021/09/01 03:16:03;;;;;;;7.82;3.70;;;;;;;13.58;67.38;101464.28;5026235;28;20032;-67
2021/09/01 03:18:29;;;;;;;6.78;4.15;;;;;;;13.51;67.33;101473.88;5026040;28;20485;-68
2021/09/01 03:20:54;;;;;;;6.22;3.78;;;;;;;13.33;67.54;101461.75;5025933;28;20053;-68
2021/09/01 03:23:19;;;;;;;8.05;4.38;;;;;;;13.39;67.60;101473.88;5025897;28;20331;-68
2021/09/01 03:25:45;;;;;;;6.22;3.88;;;;;;;13.36;67.47;101477.38;5026157;28;20121;-68
2021/09/01 03:28:10;;;;;;;5.72;3.70;;;;;;;13.33;67.63;101472.19;5025141;28;20034;-66
2021/09/01 03:30:36;;;;;;;6.72;4.05;;;;;;;13.37;67.51;101483.47;5025197;28;20393;-67
2021/09/01 03:33:01;;;;;;;5.80;3.28;;;;;;;13.35;67.55;101487.81;5025646;28;20030;-68
2021/09/01 03:35:26;;;;;;;12.77;4.00;;;;;;;13.40;67.41;101483.47;5025931;28;20036;-68
2021/09/01 03:37:52;;;;;;;6.43;3.97;;;;;;;13.43;67.17;101491.28;5025660;28;20042;-67
2021/09/01 03:40:17;;;;;;;6.75;4.47;;;;;;;13.50;66.86;101484.28;5026007;28;20025;-67
2021/09/01 03:42:43;;;;;;;7.68;4.55;;;;;;;13.52;66.56;101479.97;5024296;28;20061;-67
2021/09/01 03:45:10;;;;;;;9.48;4.57;;;;;;;13.55;66.30;101484.28;5025720;28;20025;-68
2021/09/01 03:47:36;;;;;;;7.90;4.68;;;;;;;13.53;66.17;101468.66;5025462;28;20038;-68
2021/09/01 03:50:04;;;;;;;7.00;4.28;;;;;;;13.58;66.14;101482.56;5025508;28;20028;-67
2021/09/01 03:52:30;;;;;;;6.93;4.13;;;;;;;13.60;65.92;101475.59;5025462;28;20044;-66
2021/09/01 03:54:55;;;;;;;6.35;3.90;;;;;;;13.59;65.80;101478.22;5025318;28;20528;-66
2021/09/01 03:57:20;;;;;;;6.93;4.18;;;;;;;13.59;65.81;101479.09;5025015;28;20065;-65
2021/09/01 03:59:46;;;;;;;6.30;4.13;;;;;;;13.59;65.72;101479.09;5025172;28;20026;-67
2021/09/01 04:02:11;;;;;;;6.72;4.35;;;;;;;13.59;65.61;101484.31;5023851;28;20032;-67
2021/09/01 04:04:37;;;;;;;6.78;4.43;;;;;;;13.57;65.85;101480.81;5025176;28;20033;-67
2021/09/01 04:07:04;;;;;;;6.55;4.35;;;;;;;13.54;65.72;101483.44;5025345;28;20077;-66
2021/09/01 04:09:29;;;;;;;6.68;4.28;;;;;;;13.53;65.78;101475.63;5025263;28;20030;-66
2021/09/01 04:11:55;;;;;;;7.13;4.10;;;;;;;13.53;65.73;101484.31;5025486;28;20297;-67
2021/09/01 04:14:21;;;;;;;6.50;4.07;;;;;;;13.53;65.66;101481.69;5025132;28;20021;-67
2021/09/01 04:16:46;;;;;;;10.50;5.25;;;;;;;13.52;65.89;101487.78;5024885;28;20439;-68
2021/09/01 04:19:11;;;;;;;7.65;4.22;;;;;;;13.47;65.58;101473.84;5025237;28;20018;-66
2021/09/01 04:21:37;;;;;;;7.75;4.97;;;;;;;13.48;65.77;101483.44;5023541;28;20481;-66
2021/09/01 04:24:02;;;;;;;5.60;3.72;;;;;;;13.50;65.73;101479.97;5024593;28;20048;-65
2021/09/01 04:26:28;;;;;;;6.38;4.60;;;;;;;13.57;65.67;101486.03;5023587;28;20056;-65
2021/09/01 04:28:53;;;;;;;6.97;4.18;;;;;;;13.65;65.62;101482.53;5024298;28;20037;-65
2021/09/01 04:31:18;;;;;;;6.43;3.97;;;;;;;13.69;65.48;101474.69;5024632;28;20021;-66
2021/09/01 04:33:44;;;;;;;7.50;4.80;;;;;;;13.91;65.43;101484.16;5024618;28;20539;-66
2021/09/01 04:36:09;;;;;;;8.18;4.88;;;;;;;14.09;65.09;101494.50;5024374;28;20033;-66
2021/09/01 04:38:35;;;;;;;6.53;4.45;;;;;;;14.31;64.77;101498.72;5024222;28;20089;-67
2021/09/01 04:41:00;;;;;;;5.28;3.88;;;;;;;14.49;64.30;101495.09;5024327;28;20063;-67
2021/09/01 04:43:26;;;;;;;6.60;4.63;;;;;;;14.69;63.97;101499.31;5024393;28;20029;-67
2021/09/01 04:45:51;;;;;;;6.93;4.43;;;;;;;14.77;63.30;101496.66;5024165;28;20025;-67
2021/09/01 04:48:16;;;;;;;7.32;4.07;;;;;;;14.78;62.90;101504.47;5022940;28;20109;-65
2021/09/01 04:50:42;;;;;;;9.93;4.45;;;;;;;14.78;62.67;101494.00;5024193;28;20111;-65
2021/09/01 04:53:07;;;;;;;6.53;4.43;;;;;;;14.81;62.57;101504.47;5024345;28;20025;-66
2021/09/01 04:55:32;;;;;;;6.93;4.32;;;;;;;14.78;62.25;101501.84;5024084;28;20026;-65
2021/09/01 04:58:00;;;;;;;7.53;4.85;;;;;;;14.79;62.26;101494.91;5023771;28;20034;-65
2021/09/01 05:00:25;;;;;;;7.03;4.55;;;;;;;14.76;61.95;101498.38;5024247;28;20026;-66
2021/09/01 05:02:50;;;;;;;6.30;4.22;;;;;;;14.75;61.84;101502.75;5024350;28;20033;-66
2021/09/01 05:05:16;;;;;;;6.13;3.95;;;;;;;14.63;61.66;101501.09;5022918;28;20056;-67
2021/09/01 05:07:41;;;;;;;8.07;4.65;;;;;;;14.55;61.79;101492.47;5024122;28;20420;-65
2021/09/01 05:10:07;;;;;;;10.23;4.80;;;;;;;14.54;62.04;101495.06;5023841;28;20037;-68
2021/09/01 05:12:32;;;;;;;6.30;4.22;;;;;;;14.51;62.02;101495.97;5023458;28;20437;-69
2021/09/01 05:14:58;;;;;;;6.85;4.57;;;;;;;14.42;62.00;101489.09;5023902;28;20258;-67
2021/09/01 05:17:23;;;;;;;7.43;4.82;;;;;;;14.40;61.80;101498.66;5023480;28;20026;-67
2021/09/01 05:19:49;;;;;;;6.55;4.35;;;;;;;14.31;61.88;101499.63;5024141;28;20033;-67
2021/09/01 05:22:19;;;;;;;5.68;4.20;;;;;;;14.24;62.48;101493.56;5023983;28;20022;-68
2021/09/01 05:25:07;;;;;;;7.43;4.95;;;;;;;14.24;62.64;101493.56;5022640;28;20133;-66
2021/09/01 05:27:35;;;;;;;6.30;4.47;;;;;;;14.27;62.97;101497.88;5023615;28;20548;-67
2021/09/01 05:30:05;;;;;;;8.48;4.85;;;;;;;14.27;62.94;101500.47;5022466;28;20034;-66
2021/09/01 05:32:31;;;;;;;7.60;4.68;;;;;;;14.28;62.83;101501.38;5023991;28;20076;-66
2021/09/01 05:34:59;;;;;;;6.47;4.95;;;;;;;14.20;63.06;101498.81;5023904;28;20029;-67
2021/09/01 05:37:25;;;;;;;8.68;5.00;;;;;;;14.15;63.23;101498.84;5025919;28;20033;-66
2021/09/01 05:39:53;;;;;;;8.02;4.68;;;;;;;14.08;63.64;101492.78;5027868;28;20056;-66
2021/09/01 05:42:21;;;;;;;10.95;5.03;;;;;;;14.04;63.69;101480.59;5027671;28;20017;-67
2021/09/01 05:44:47;;;;;;;6.18;4.38;;;;;;;14.04;63.59;101484.97;5026373;28;20052;-65
2021/09/01 05:47:14;;;;;;;6.43;4.32;;;;;;;14.00;63.84;101484.09;5026620;28;20393;-67
2021/09/01 05:49:41;;;;;;;7.65;4.68;;;;;;;14.07;63.79;101495.38;5027697;28;20029;-66
2021/09/01 05:52:07;;;;;;;6.68;4.78;;;;;;;14.12;63.70;101491.88;5027883;28;20052;-66
2021/09/01 05:54:34;;;;;;;6.70;4.60;;;;;;;14.09;63.92;101489.28;5027477;28;20056;-66
2021/09/01 05:57:14;;;;;;;6.35;4.43;;;;;;;14.15;63.65;101492.72;5025968;28;20081;-67
2021/09/01 06:00:00;;;;;;;6.72;4.50;;;;;;;14.21;63.35;101488.34;5027529;28;20053;-67
2021/09/01 06:02:52;;;;;;;7.72;4.40;;;;;;;14.26;63.31;101490.94;5027348;28;20029;-66
2021/09/01 06:05:19;;;;;;;;;;;;;;;14.36;63.29;101487.38;5028067;28;20362;-66
2021/09/01 06:08:00;;;;;;;10.10;4.45;;;;;;;14.43;63.23;101496.03;5026914;28;19910;-67
2021/09/01 06:10:31;;;;;;;7.07;4.15;;;;;;;14.56;62.90;101488.09;5027399;28;20536;-67
2021/09/01 06:13:01;;;;;;;8.50;4.30;;;;;;;14.65;62.68;101487.19;5027463;28;20505;-67
2021/09/01 06:15:26;;;;;;;7.97;4.32;;;;;;;14.75;62.35;101488.81;5027193;28;20036;-67
2021/09/01 06:17:52;;;;;;;8.70;4.80;;;;;;;14.83;61.82;101491.38;5027368;28;20656;-68
2021/09/01 06:20:17;;;;;;;7.85;4.80;;;;;;;14.86;61.90;101492.25;5027089;28;20030;-67
2021/09/01 06:22:43;;;;;;;7.82;4.55;;;;;;;14.88;62.12;101487.00;5026930;28;20089;-67
2021/09/01 06:25:09;;;;;;;7.03;4.55;;;;;;;14.93;61.94;101487.84;5026948;28;20018;-67
2021/09/01 06:27:34;;;;;;;7.70;4.35;;;;;;;14.99;61.96;101493.00;5026959;28;20018;-67
2021/09/01 06:30:00;;;;;;;7.97;4.97;;;;;;;15.06;61.66;101499.03;5025706;28;20047;-67
2021/09/01 06:32:25;;;;;;;6.18;4.40;;;;;;;15.09;61.44;101491.16;5025804;28;20061;-67
2021/09/01 06:34:50;;;;;;;6.95;4.45;;;;;;;15.11;61.14;101492.00;5026979;28;20105;-67
2021/09/01 06:37:16;;;;;;;7.82;4.28;;;;;;;15.06;60.96;101496.44;5026527;28;20025;-66
2021/09/01 06:39:41;;;;;;;8.05;5.18;;;;;;;15.06;61.16;101499.03;5026844;28;20474;-66
2021/09/01 06:42:07;;;;;;;8.75;5.32;;;;;;;15.08;61.09;101497.25;5026733;28;20025;-67
2021/09/01 06:44:34;;;;;;;9.50;5.00;;;;;;;15.14;61.06;101496.34;5026453;28;20081;-67
2021/09/01 06:47:00;;;;;;;11.70;5.30;;;;;;;15.21;60.72;101482.31;5025024;28;20022;-68
2021/09/01 06:49:25;;;;;;;13.25;5.90;;;;;;;15.33;60.50;101486.56;5025503;28;20105;-67
2021/09/01 06:51:51;;;;;;;9.25;4.72;;;;;;;15.41;60.72;101496.06;5026536;28;20036;-68
2021/09/01 06:54:16;;;;;;;8.70;4.60;;;;;;;15.47;60.31;101485.53;5025411;28;20033;-67
2021/09/01 06:56:41;;;;;;;8.50;5.40;;;;;;;15.72;59.89;101493.94;5026348;28;20050;-66
2021/09/01 06:59:07;;;;;;;8.20;5.05;;;;;;;15.86;58.86;101492.91;5026196;28;20057;-68
2021/09/01 07:01:32;;;;;;;7.88;4.93;;;;;;;15.96;57.22;101491.00;5026565;28;20049;-67
2021/09/01 07:03:57;;;;;;;6.65;4.47;;;;;;;16.01;56.97;101491.84;5026476;28;20086;-66
2021/09/01 07:06:23;;;;;;;8.43;4.53;;;;;;;16.02;56.34;101493.59;5026449;28;20030;-66
2021/09/01 07:08:50;;;;;;;7.13;4.45;;;;;;;16.01;55.80;101499.72;5026188;28;20113;-67
2021/09/01 07:11:15;;;;;;;9.98;4.32;;;;;;;15.94;55.43;101491.03;5026266;28;20347;-67
2021/09/01 07:13:42;;;;;;;8.40;4.28;;;;;;;15.91;55.24;101492.84;5026000;28;20052;-67
2021/09/01 07:16:08;;;;;;;7.03;4.60;;;;;;;15.89;55.49;101492.00;5026231;28;20026;-66
2021/09/01 07:18:33;;;;;;;8.90;4.88;;;;;;;16.04;55.36;101494.44;5026157;28;20024;-67
2021/09/01 07:20:59;;;;;;;8.52;4.47;;;;;;;16.17;54.63;101492.50;5025957;28;20052;-67
2021/09/01 07:23:24;;;;;;;8.38;4.95;;;;;;;16.24;53.81;101501.16;5026161;28;20022;-67
2021/09/01 07:25:49;;;;;;;7.28;4.68;;;;;;;16.25;53.47;101502.88;5026092;28;20072;-67
2021/09/01 07:28:15;;;;;;;6.68;3.90;;;;;;;16.22;52.71;101498.56;5023155;28;20014;-66
2021/09/01 07:30:40;;;;;;;9.13;4.03;;;;;;;16.16;52.53;101500.38;5025203;28;20033;-67
2021/09/01 07:33:05;;;;;;;6.15;4.13;;;;;;;16.13;52.63;101503.06;5024463;28;20063;-66
2021/09/01 07:35:31;;;;;;;6.05;4.25;;;;;;;16.06;51.94;101505.75;5025700;28;20385;-67
2021/09/01 07:37:56;;;;;;;5.97;4.18;;;;;;;16.11;51.66;101508.31;5025627;28;20026;-68
2021/09/01 07:40:23;;;;;;;5.63;3.80;;;;;;;16.08;51.80;101505.75;5025573;28;20490;-67
2021/09/01 07:42:49;;;;;;;7.40;4.85;;;;;;;16.07;51.71;101506.63;5025372;28;20061;-67
2021/09/01 07:45:16;;;;;;;5.43;3.70;;;;;;;16.18;51.49;101509.09;5024250;28;20026;-68
2021/09/01 07:47:53;;;;;;;7.07;4.53;;;;;;;16.24;51.39;101506.38;5025197;28;20029;-66
2021/09/01 07:50:20;;;;;;;5.95;3.95;;;;;;;16.24;50.27;101503.78;5025595;28;20038;-66
2021/09/01 07:52:46;;;;;;;5.85;4.05;;;;;;;16.25;50.10;101513.34;5023888;28;20404;-67
2021/09/01 07:55:12;;;;;;;5.90;4.03;;;;;;;16.32;49.42;101517.63;5025294;28;20037;-67
2021/09/01 07:57:38;;;;;;;7.47;4.38;;;;;;;16.38;48.91;101518.41;5025024;28;20050;-67
2021/09/01 08:00:05;;;;;;;6.18;3.95;;;;;;;16.53;48.88;101526.06;5025198;28;20030;-67
2021/09/01 08:02:31;;;;;;;5.95;4.00;;;;;;;16.93;49.20;101532.38;5023671;28;20032;-68
2021/09/01 08:04:56;;;;;;;9.38;4.82;;;;;;;17.39;48.16;101526.38;5025163;28;20029;-68
2021/09/01 08:07:21;;;;;;;7.15;4.13;;;;;;;17.68;45.50;101535.44;5024953;28;20022;-68
2021/09/01 08:09:47;;;;;;;4.70;3.72;;;;;;;17.59;44.70;101528.59;5024922;28;20037;-68
2021/09/01 08:12:12;;;;;;;6.70;4.57;;;;;;;17.63;44.90;101550.41;5024853;28;20057;-68
2021/09/01 08:14:37;;;;;;;6.10;3.45;;;;;;;17.58;44.91;101534.75;5024744;28;20093;-68
2021/09/01 08:17:03;;;;;;;4.95;3.22;;;;;;;17.62;44.15;101546.06;5023395;28;20072;-67
2021/09/01 08:19:28;;;;;;;5.60;4.03;;;;;;;17.53;44.86;101547.09;5024758;28;20026;-68
2021/09/01 08:21:54;;;;;;;5.57;3.72;;;;;;;17.46;42.95;101547.22;5024771;28;20022;-68
2021/09/01 08:24:19;;;;;;;5.88;3.80;;;;;;;17.50;42.88;101558.53;5024891;28;20470;-68
2021/09/01 08:26:44;;;;;;;6.93;3.80;;;;;;;17.49;42.70;101562.06;5024991;28;20461;-68
2021/09/01 08:29:10;;;;;;;6.95;3.85;;;;;;;17.42;42.74;101561.31;5023338;28;20030;-67
2021/09/01 08:31:35;;;;;;;6.75;3.88;;;;;;;17.36;42.77;101555.31;5024810;28;20057;-68
2021/09/01 08:34:00;;;;;;;9.95;4.57;;;;;;;17.40;43.27;101552.59;5024664;28;20013;-68
2021/09/01 08:36:26;;;;;;;7.07;4.13;;;;;;;17.55;43.18;101564.56;5024653;28;20103;-68
2021/09/01 08:38:51;;;;;;;6.38;3.67;;;;;;;17.71;42.79;101567.78;5024701;28;20021;-68
2021/09/01 08:41:18;;;;;;;7.63;4.22;;;;;;;17.93;41.93;101567.31;5024626;28;20033;-69
2021/09/01 08:43:46;;;;;;;6.68;4.10;;;;;;;18.07;42.25;101555.63;5024214;28;20029;-66
2021/09/01 08:46:12;;;;;;;6.57;4.25;;;;;;;18.25;41.41;101561.41;5023099;28;20117;-68
2021/09/01 08:48:40;;;;;;;7.30;4.03;;;;;;;18.41;40.70;101564.56;5024434;28;20022;-67
2021/09/01 08:51:05;;;;;;;6.10;3.88;;;;;;;18.55;40.86;101569.50;5024476;28;20049;-67
2021/09/01 08:53:31;;;;;;;13.15;4.00;;;;;;;18.93;40.73;101569.50;5024453;28;20050;-67
2021/09/01 08:55:56;;;;;;;6.63;3.70;;;;;;;19.38;39.83;101565.72;5024319;28;20093;-67
2021/09/01 08:58:22;;;;;;;7.25;3.80;;;;;;;19.57;39.38;101559.94;5023756;28;20034;-67
2021/09/01 09:00:47;;;;;;;6.63;3.60;;;;;;;19.57;38.72;101559.94;5023752;28;20026;-67
2021/09/01 09:03:12;;;;;;;6.13;3.55;;;;;;;19.53;38.73;101558.31;5023969;28;20301;-67
2021/09/01 09:05:43;;;;;;;5.30;3.70;;;;;;;19.52;38.60;101561.88;5024125;28;20029;-66
2021/09/01 09:08:12;;;;;;;4.68;3.08;;;;;;;19.72;37.88;101552.50;5024260;28;20045;-67
2021/09/01 09:10:40;;;;;;;5.30;3.53;;;;;;;20.16;37.53;101553.00;5023965;28;20030;-67
2021/09/01 09:13:11;;;;;;;5.85;3.78;;;;;;;21.06;36.61;101548.41;5023577;28;20021;-68
2021/09/01 09:15:38;;;;;;;5.60;3.20;;;;;;;21.98;35.00;101547.75;5024147;28;20030;-69
2021/09/01 09:18:23;;;;;;;4.88;3.53;;;;;;;22.63;34.01;101548.81;5024010;28;20512;-67
2021/09/01 09:20:48;;;;;;;5.00;3.00;;;;;;;22.84;32.95;101554.13;5023854;28;20065;-68
2021/09/01 09:23:29;;;;;;;7.10;3.90;;;;;;;23.02;32.86;101553.34;5023949;28;20026;-67
2021/09/01 09:25:54;;;;;;;5.07;3.75;;;;;;;23.00;32.61;101549.88;5022633;28;20421;-67
2021/09/01 09:28:19;;;;;;;5.68;3.80;;;;;;;23.11;31.80;101545.91;5023673;28;20081;-69
2021/09/01 09:30:46;;;;;;;5.15;3.42;;;;;;;22.75;32.40;101548.28;5024069;28;20104;-68
2021/09/01 09:33:17;;;;;;;7.30;3.63;;;;;;;22.71;32.49;101548.47;5023974;28;20046;-68
2021/09/01 09:35:59;;;;;;;6.30;3.20;;;;;;;22.37;32.51;101550.69;5024077;28;20022;-68
2021/09/01 09:38:34;;;;;;;6.03;3.63;;;;;;;21.97;33.36;101551.34;5023784;28;20052;-68
2021/09/01 09:41:01;;;;;;;5.00;3.15;;;;;;;21.63;33.04;101557.88;5023626;28;20026;-67
2021/09/01 09:43:27;;;;;;;6.53;3.05;;;;;;;21.37;32.93;101551.75;5023456;28;20029;-67
2021/09/01 09:46:06;;;;;;;4.63;2.80;;;;;;;21.18;33.93;101558.53;5023580;28;20114;-68
2021/09/01 09:48:33;;;;;;;4.82;3.30;;;;;;;21.11;34.22;101556.16;5022144;28;20018;-68
2021/09/01 09:51:01;;;;;;;3.55;2.90;;;;;;;21.57;33.90;101553.66;5023693;28;20044;-68
2021/09/01 09:53:30;;;;;;;6.07;3.13;;;;;;;21.99;32.51;101549.50;5023738;28;20033;-67
2021/09/01 09:56:26;;;;;;;6.75;3.15;;;;;;;22.27;32.72;101545.78;5022484;28;20054;-68
2021/09/01 09:58:54;;;;;;;5.45;3.42;;;;;;;22.24;32.62;101540.59;5021925;28;20046;-68
2021/09/01 10:01:21;;;;;;;6.63;3.38;;;;;;;22.80;32.79;101555.16;5023392;28;20033;-68
2021/09/01 10:03:48;;;;;;;4.60;3.35;;;;;;;22.89;32.16;101544.22;5006039;28;20039;-69
2021/09/01 10:06:18;;;;;;;6.90;3.40;;;;;;;22.82;32.45;101548.91;5023578;28;20022;-69
2021/09/01 10:08:49;;;;;;;5.90;3.05;;;;;;;23.40;31.72;101542.00;5023587;28;20023;-68
2021/09/01 10:11:17;;;;;;;4.80;3.20;;;;;;;23.46;30.93;101540.88;5023472;28;20041;-68
2021/09/01 10:13:44;;;;;;;5.57;3.33;;;;;;;23.36;31.34;101534.22;5023243;28;20022;-69
2021/09/01 10:16:25;;;;;;;3.60;2.58;;;;;;;23.75;30.98;101533.38;5023396;28;20037;-67
2021/09/01 10:19:16;;;;;;;4.80;2.95;;;;;;;23.83;30.71;101527.72;5023289;28;20090;-68
2021/09/01 10:21:45;;;;;;;4.72;3.05;;;;;;;24.18;31.34;101516.41;5023360;28;20037;-68
2021/09/01 10:24:29;;;;;;;4.43;3.38;;;;;;;25.50;29.98;101531.91;5026670;28;20052;-68
2021/09/01 10:27:03;;;;;;;5.30;3.28;;;;;;;26.30;28.27;101525.75;5027185;28;20030;-68
2021/09/01 10:29:41;;;;;;;5.70;2.72;;;;;;;26.97;27.21;101529.00;5026892;28;20025;-69
2021/09/01 10:32:31;;;;;;;5.10;2.95;;;;;;;27.51;26.18;101524.03;5027070;28;20081;-68
2021/09/01 10:35:20;;;;;;;4.47;3.20;;;;;;;27.60;25.08;101526.09;5027081;28;20493;-68
2021/09/01 10:37:55;;;;;;;5.28;3.40;;;;;;;27.00;26.21;101527.97;5026817;28;20033;-67
2021/09/01 10:40:21;;;;;;;5.95;3.38;;;;;;;26.59;25.99;101533.03;5026801;28;20040;-68
2021/09/01 10:42:50;;;;;;;5.38;4.03;;;;;;;26.02;26.54;101532.66;5025248;28;20065;-67
2021/09/01 10:45:18;;;;;;;4.28;2.97;;;;;;;26.21;26.76;101523.63;5025279;28;20018;-67
2021/09/01 10:47:49;;;;;;;5.72;3.22;;;;;;;26.10;27.32;101526.91;5026666;28;20097;-66
2021/09/01 10:50:15;;;;;;;5.95;3.40;;;;;;;25.80;27.32;101525.03;5026653;28;20528;-67
2021/09/01 10:53:04;;;;;;;5.00;3.40;;;;;;;25.62;27.95;101533.91;5026595;28;20030;-68
2021/09/01 10:55:31;;;;;;;4.10;2.78;;;;;;;25.63;27.31;101521.50;5026488;28;20473;-69
2021/09/01 10:58:16;;;;;;;4.88;3.45;;;;;;;25.70;27.25;101520.19;5025980;28;20466;-68
2021/09/01 11:00:43;;;;;;;4.28;3.20;;;;;;;25.81;27.80;101526.72;5026198;28;20115;-68
2021/09/01 11:03:08;;;;;;;7.75;2.90;;;;;;;25.93;27.35;101533.16;5026312;28;20101;-67
2021/09/01 11:05:34;;;;;;;4.70;3.22;;;;;;;25.74;27.66;101529.75;5024783;28;20048;-67
2021/09/01 11:07:59;;;;;;;5.75;3.30;;;;;;;25.59;28.41;101535.88;5026445;28;20018;-68
2021/09/01 11:10:28;;;;;;;4.78;3.05;;;;;;;25.47;27.83;101529.41;5025801;28;20034;-67
2021/09/01 11:12:58;;;;;;;6.60;3.40;;;;;;;25.35;28.54;101530.94;5025041;28;20026;-67
2021/09/01 11:15:24;;;;;;;5.28;3.60;;;;;;;25.25;28.34;101522.59;5025305;28;20055;-68
2021/09/01 11:17:50;;;;;;;5.05;3.53;;;;;;;25.17;28.78;101530.97;5024903;28;20061;-68
2021/09/01 11:20:15;;;;;;;4.70;3.75;;;;;;;25.16;28.42;101534.56;5024980;28;20026;-67
2021/09/01 11:22:42;;;;;;;6.22;3.85;;;;;;;25.12;28.17;101530.34;5024811;28;20034;-69
2021/09/01 11:25:13;;;;;;;4.28;3.40;;;;;;;25.07;28.12;101527.94;5026015;28;20026;-67